createdAt,value
2018-06-24T00:01:07.960Z,71.28
2018-06-24T00:02:18.041Z,71.31
2018-06-24T00:03:28.119Z,71.47
2018-06-24T00:04:37.924Z,71.47
2018-06-24T00:05:48.015Z,71.66
2018-06-24T00:06:58.098Z,71.28
2018-06-24T00:08:08.176Z,71.37
2018-06-24T00:09:18.247Z,71.28
2018-06-24T00:10:28.313Z,71.28
2018-06-24T00:11:38.379Z,71.66
2018-06-24T00:12:48.189Z,71.57
2018-06-24T00:13:58.450Z,71.28
2018-06-24T00:15:08.537Z,71.66
2018-06-24T00:16:18.366Z,71.28
2018-06-24T00:17:28.433Z,71.47
2018-06-24T00:18:39.404Z,71.28
2018-06-24T00:19:49.474Z,71.47
2018-06-24T00:20:59.560Z,71.37
2018-06-24T00:22:09.633Z,71.47
2018-06-24T00:23:19.699Z,71.47
2018-06-24T00:24:29.852Z,71.47
2018-06-24T00:25:39.694Z,71.28
2018-06-24T00:26:49.876Z,71.76
2018-06-24T00:27:59.947Z,71.66
2018-06-24T00:29:10.073Z,71.57
2018-06-24T00:30:20.145Z,71.57
2018-06-24T00:31:30.218Z,71.53
2018-06-24T00:32:40.289Z,71.63
2018-06-24T00:33:50.358Z,71.63
2018-06-24T00:35:00.441Z,71.53
2018-06-24T00:36:10.533Z,71.63
2018-06-24T00:37:20.780Z,71.53
2018-06-24T00:38:30.850Z,71.72
2018-06-24T00:39:40.920Z,71.63
2018-06-24T00:40:50.993Z,71.44
2018-06-24T00:42:01.065Z,71.34
2018-06-24T00:43:10.865Z,71.44
2018-06-24T00:44:20.935Z,71.53
2018-06-24T00:45:31.021Z,71.72
2018-06-24T00:46:41.091Z,71.53
2018-06-24T00:47:51.163Z,71.72
2018-06-24T00:49:00.987Z,71.69
2018-06-24T00:50:11.066Z,71.5
2018-06-24T00:51:21.154Z,71.59
2018-06-24T00:52:31.225Z,71.69
2018-06-24T00:53:41.339Z,71.59
2018-06-24T00:54:51.139Z,71.4
2018-06-24T00:56:01.236Z,71.5
2018-06-24T00:57:11.054Z,71.4
2018-06-24T00:58:21.138Z,71.5
2018-06-24T00:59:30.979Z,71.59
2018-06-24T01:00:41.057Z,71.59
2018-06-24T01:01:51.136Z,71.5
2018-06-24T01:03:01.240Z,71.78
2018-06-24T01:04:11.308Z,71.59
2018-06-24T01:05:21.371Z,71.69
2018-06-24T01:06:31.484Z,71.69
2018-06-24T01:07:41.556Z,71.4
2018-06-24T01:08:51.651Z,71.31
2018-06-24T01:10:01.712Z,71.4
2018-06-24T01:11:11.794Z,71.31
2018-06-24T01:12:21.595Z,71.21
2018-06-24T01:13:31.658Z,71.5
2018-06-24T01:14:41.726Z,71.4
2018-06-24T01:15:51.806Z,71.21
2018-06-24T01:17:01.879Z,71.5
2018-06-24T01:18:11.944Z,71.31
2018-06-24T01:19:21.764Z,71.31
2018-06-24T01:20:31.818Z,71.5
2018-06-24T01:21:41.628Z,71.31
2018-06-24T01:22:51.499Z,71.31
2018-06-24T01:24:01.585Z,71.59
2018-06-24T01:25:11.657Z,71.4
2018-06-24T01:26:21.726Z,71.59
2018-06-24T01:27:31.528Z,71.4
2018-06-24T01:28:41.600Z,71.5
2018-06-24T01:29:51.716Z,71.59
2018-06-24T01:31:01.535Z,71.4
2018-06-24T01:32:11.594Z,71.59
2018-06-24T01:33:21.653Z,71.59
2018-06-24T01:34:31.729Z,71.59
2018-06-24T01:35:41.796Z,71.59
2018-06-24T01:36:51.866Z,71.59
2018-06-24T01:38:01.685Z,71.69
2018-06-24T01:39:11.754Z,71.59
2018-06-24T01:40:21.563Z,71.5
2018-06-24T01:41:31.645Z,71.59
2018-06-24T01:42:41.716Z,71.78
2018-06-24T01:43:51.785Z,71.78
2018-06-24T01:45:01.849Z,71.78
2018-06-24T01:46:11.975Z,71.75
2018-06-24T01:47:22.047Z,71.56
2018-06-24T01:48:32.225Z,71.56
2018-06-24T01:49:42.029Z,71.46
2018-06-24T01:50:51.843Z,71.37
2018-06-24T01:52:01.963Z,71.17
2018-06-24T01:53:11.767Z,71.56
2018-06-24T01:54:21.565Z,71.4
2018-06-24T01:55:31.639Z,71.17
2018-06-24T01:56:41.780Z,71.37
2018-06-24T01:57:51.863Z,71.4
2018-06-24T01:59:01.941Z,71.4
2018-06-24T02:00:12.008Z,71.59
2018-06-24T02:01:22.101Z,71.59
2018-06-24T02:02:32.182Z,71.59
2018-06-24T02:03:42.291Z,71.59
2018-06-24T02:04:51.823Z,71.5
2018-06-24T02:06:01.631Z,71.31
2018-06-24T02:07:11.687Z,71.69
2018-06-24T02:08:21.758Z,71.4
2018-06-24T02:09:31.876Z,71.21
2018-06-24T02:10:41.682Z,71.69
2018-06-24T02:11:51.218Z,71.59
2018-06-24T02:13:01.018Z,71.5
2018-06-24T02:14:11.100Z,71.5
2018-06-24T02:15:20.914Z,71.59
2018-06-24T02:16:31.017Z,71.59
2018-06-24T02:17:41.084Z,71.21
2018-06-24T02:18:51.157Z,71.4
2018-06-24T02:20:01.234Z,71.59
2018-06-24T02:21:11.357Z,71.78
2018-06-24T02:22:21.439Z,71.59
2018-06-24T02:23:31.517Z,71.78
2018-06-24T02:24:41.575Z,71.69
2018-06-24T02:26:08.934Z,71.59
2018-06-24T02:27:19.004Z,71.59
2018-06-24T02:28:29.107Z,71.59
2018-06-24T02:29:39.172Z,71.5
2018-06-24T02:30:49.232Z,71.69
2018-06-24T02:31:59.361Z,71.4
2018-06-24T02:33:09.173Z,71.31
2018-06-24T02:34:18.978Z,71.31
2018-06-24T02:35:29.059Z,71.4
2018-06-24T02:36:38.878Z,71.21
2018-06-24T02:37:48.954Z,71.21
2018-06-24T02:38:59.013Z,71.59
2018-06-24T02:40:09.114Z,71.59
2018-06-24T02:41:19.207Z,71.69
2018-06-24T02:42:29.264Z,71.59
2018-06-24T02:43:39.341Z,71.78
2018-06-24T02:44:49.149Z,71.5
2018-06-24T02:45:59.214Z,71.59
2018-06-24T02:47:09.295Z,71.78
2018-06-24T02:48:19.366Z,71.88
2018-06-24T02:49:29.448Z,71.78
2018-06-24T02:50:39.260Z,71.5
2018-06-24T02:51:49.316Z,71.78
2018-06-24T02:52:59.400Z,71.59
2018-06-24T02:54:09.237Z,71.59
2018-06-24T02:55:19.069Z,71.78
2018-06-24T02:56:28.880Z,71.56
2018-06-24T02:57:38.959Z,71.56
2018-06-24T02:58:48.787Z,71.31
2018-06-24T02:59:58.640Z,71.84
2018-06-24T03:01:08.738Z,71.56
2018-06-24T03:02:18.819Z,71.31
2018-06-24T03:34:09.199Z,66.38
2018-06-24T03:35:19.268Z,66.86
2018-06-24T03:36:29.330Z,66.7
2018-06-24T03:37:39.379Z,67.85
2018-06-24T03:38:49.442Z,67.63
2018-06-24T03:39:59.238Z,68.62
2018-06-24T03:41:09.090Z,68.9
2018-06-24T03:42:18.895Z,69
2018-06-24T03:43:28.962Z,69.67
2018-06-24T03:44:39.038Z,69.8
2018-06-24T03:45:48.620Z,69.99
2018-06-24T03:46:58.426Z,69.8
2018-06-24T03:48:08.485Z,69.8
2018-06-24T03:49:18.551Z,70.21
2018-06-24T03:50:28.625Z,70.21
2018-06-24T03:51:38.687Z,70.5
2018-06-24T03:52:48.755Z,70.31
2018-06-24T03:53:58.820Z,70.83
2018-06-24T03:55:08.632Z,70.54
2018-06-24T03:56:18.447Z,70.44
2018-06-24T03:57:28.555Z,70.44
2018-06-24T03:58:38.626Z,70.57
2018-06-24T03:59:48.706Z,70.38
2018-06-24T04:00:58.514Z,70.57
2018-06-24T04:02:08.583Z,70.96
2018-06-24T04:03:18.702Z,70.86
2018-06-24T04:04:28.771Z,70.76
2018-06-24T04:05:38.585Z,70.67
2018-06-24T04:06:48.700Z,70.57
2018-06-24T04:07:58.768Z,70.57
2018-06-24T04:09:08.845Z,70.7
2018-06-24T04:10:18.918Z,70.7
2018-06-24T04:11:28.988Z,70.99
2018-06-24T04:12:38.808Z,70.99
2018-06-24T04:13:48.612Z,70.99
2018-06-24T04:14:58.732Z,70.7
2018-06-24T04:16:08.794Z,70.7
2018-06-24T04:17:18.863Z,70.61
2018-06-24T04:18:28.813Z,70.9
2018-06-24T04:19:39.032Z,70.45
2018-06-24T04:20:49.103Z,70.32
2018-06-24T04:21:59.173Z,70.26
2018-06-24T04:23:09.235Z,69.87
2018-06-24T04:24:18.778Z,70.07
2018-06-24T04:25:28.590Z,70.26
2018-06-24T04:26:38.715Z,70.17
2018-06-24T04:27:48.793Z,70.2
2018-06-24T04:28:58.874Z,69.91
2018-06-24T04:30:08.964Z,69.91
2018-06-24T04:31:19.041Z,69.62
2018-06-24T04:32:29.115Z,69.62
2018-06-24T04:33:39.288Z,69.34
2018-06-24T04:34:49.093Z,69.95
2018-06-24T04:35:58.902Z,69.56
2018-06-24T04:37:08.987Z,69.27
2018-06-24T04:38:19.110Z,69.37
2018-06-24T04:39:29.197Z,69.27
2018-06-24T04:40:39.007Z,69.31
2018-06-24T04:41:49.081Z,69.6
2018-06-24T04:42:59.154Z,69.69
2018-06-24T04:44:08.972Z,69.02
2018-06-24T04:45:19.048Z,68.76
2018-06-24T04:46:29.122Z,68.86
2018-06-24T04:47:39.193Z,66.71
2018-06-24T04:48:49.274Z,66.24
2018-06-24T04:49:59.098Z,65.69
2018-06-24T04:51:09.178Z,66.66
2018-06-24T04:52:19.255Z,67.49
2018-06-24T04:53:29.326Z,67.65
2018-06-24T04:54:39.443Z,68.13
2018-06-24T04:55:49.515Z,68.71
2018-06-24T04:56:59.604Z,68.52
2018-06-24T04:58:09.686Z,68.71
2018-06-24T04:59:19.745Z,68.58
2018-06-24T05:00:29.820Z,68.96
2018-06-24T05:01:39.885Z,68.71
2018-06-24T05:02:49.943Z,68.42
2018-06-24T05:03:59.748Z,68.61
2018-06-24T05:05:09.552Z,68.96
2018-06-24T05:06:19.636Z,68.68
2018-06-24T05:07:29.894Z,69.06
2018-06-24T05:08:39.951Z,68.68
2018-06-24T05:09:50.016Z,68.42
2018-06-24T05:11:00.085Z,68.04
2018-06-24T05:12:10.155Z,67.55
2018-06-24T05:13:19.971Z,66.75
2018-06-24T05:14:30.043Z,66.72
2018-06-24T05:15:39.864Z,66.82
2018-06-24T05:16:49.663Z,67.11
2018-06-24T05:17:59.476Z,67.49
2018-06-24T05:19:09.292Z,67.65
2018-06-24T05:20:19.338Z,67.65
2018-06-24T05:21:29.417Z,67.85
2018-06-24T05:22:39.496Z,68.19
2018-06-24T05:23:49.588Z,68.29
2018-06-24T05:24:59.679Z,68.39
2018-06-24T05:26:09.752Z,68.74
2018-06-24T05:27:19.829Z,68.65
2018-06-24T05:28:29.958Z,68.74
2018-06-24T05:29:40.037Z,68.29
2018-06-24T05:30:49.845Z,68.29
2018-06-24T05:31:59.913Z,67.52
2018-06-24T05:33:09.992Z,67.65
2018-06-24T05:34:19.807Z,67.75
2018-06-24T05:35:29.885Z,67.49
2018-06-24T05:36:39.692Z,67.78
2018-06-24T05:37:49.300Z,67.59
2018-06-24T05:38:59.440Z,67.62
2018-06-24T05:40:09.242Z,67.14
2018-06-24T05:41:19.301Z,67.52
2018-06-24T05:42:29.433Z,68.01
2018-06-24T05:43:39.567Z,68.07
2018-06-24T05:44:49.638Z,67.97
2018-06-24T05:45:59.709Z,68.23
2018-06-24T05:47:09.801Z,68.43
2018-06-24T05:48:19.884Z,69
2018-06-24T05:49:29.967Z,68.68
2018-06-24T05:50:40.059Z,68.87
2018-06-24T05:51:50.138Z,68.87
2018-06-24T05:53:00.230Z,69.16
2018-06-24T05:54:10.340Z,68.87
2018-06-24T05:55:20.323Z,69.23
2018-06-24T05:56:30.390Z,68.93
2018-06-24T05:57:40.218Z,69.23
2018-06-24T05:58:50.026Z,69.23
2018-06-24T06:00:00.113Z,69.13
2018-06-24T06:01:09.928Z,69.67
2018-06-24T06:02:19.993Z,69.77
2018-06-24T06:03:30.074Z,69.77
2018-06-24T06:04:39.882Z,69.77
2018-06-24T06:05:50.074Z,69.96
2018-06-24T06:06:59.876Z,69.96
2018-06-24T06:08:09.703Z,69.77
2018-06-24T06:09:19.763Z,69.67
2018-06-24T06:10:29.904Z,68.8
2018-06-24T06:11:40.162Z,68.61
2018-06-24T06:12:50.038Z,68.45
2018-06-24T06:13:59.864Z,68.26
2018-06-24T06:15:09.937Z,68.61
2018-06-24T06:16:19.751Z,68.99
2018-06-24T06:17:29.827Z,68.52
2018-06-24T06:18:39.647Z,68.32
2018-06-24T06:19:49.726Z,68.07
2018-06-24T06:20:59.807Z,67.88
2018-06-24T06:22:09.623Z,67.88
2018-06-24T06:23:19.494Z,67.88
2018-06-24T06:24:29.570Z,68.35
2018-06-24T06:25:39.375Z,68.35
2018-06-24T06:26:49.697Z,68.45
2018-06-24T06:27:59.786Z,67.88
2018-06-24T06:29:09.612Z,67.68
2018-06-24T06:30:19.534Z,67.71
2018-06-24T06:31:30.168Z,67.75
2018-06-24T06:32:39.998Z,67.75
2018-06-24T06:33:50.070Z,67.27
2018-06-24T06:34:59.884Z,67.36
2018-06-24T06:36:10.019Z,67.17
2018-06-24T06:37:20.105Z,67.2
2018-06-24T06:38:30.186Z,66.91
2018-06-24T06:39:40.009Z,67.14
2018-06-24T06:40:50.093Z,67.14
2018-06-24T06:42:00.175Z,67.24
2018-06-24T06:43:10.250Z,67.01
2018-06-24T06:44:20.331Z,67.49
2018-06-24T06:45:30.834Z,67.59
2018-06-24T06:46:42.268Z,68.33
2018-06-24T06:47:52.084Z,67.85
2018-06-24T06:49:02.152Z,68.01
2018-06-24T06:50:12.236Z,68.1
2018-06-24T06:51:22.330Z,68.39
2018-06-24T06:52:32.416Z,68.01
2018-06-24T06:53:42.479Z,68.29
2018-06-24T06:54:52.294Z,67.71
2018-06-24T06:56:02.435Z,67.94
2018-06-24T06:57:12.555Z,66.97
2018-06-24T06:58:22.634Z,66.85
2018-06-24T06:59:32.746Z,66.17
2018-06-24T07:00:42.565Z,65.69
2018-06-24T07:01:52.365Z,66.01
2018-06-24T07:03:02.452Z,66.3
2018-06-24T07:04:12.528Z,65.66
2018-06-24T07:05:22.600Z,64.82
2018-06-24T07:06:32.683Z,64.95
2018-06-24T07:07:42.750Z,64.79
2018-06-24T07:08:52.825Z,64.53
2018-06-24T07:10:02.978Z,64.98
2018-06-24T07:11:13.066Z,66.05
2018-06-24T07:12:22.878Z,66.11
2018-06-24T07:13:32.971Z,66.75
2018-06-24T07:14:42.779Z,66.95
2018-06-24T07:15:52.864Z,67.49
2018-06-24T07:17:02.953Z,67.21
2018-06-24T07:18:13.032Z,67.85
2018-06-24T07:19:23.124Z,67.62
2018-06-24T07:20:32.917Z,68.01
2018-06-24T07:21:42.740Z,67.72
2018-06-24T07:22:52.809Z,67.82
2018-06-24T07:24:02.885Z,68.1
2018-06-24T07:25:12.999Z,68.01
2018-06-24T07:26:22.551Z,67.91
2018-06-24T07:27:32.714Z,67.72
2018-06-24T07:28:42.928Z,67.27
2018-06-24T07:29:53.008Z,67.36
2018-06-24T07:31:02.826Z,67.36
2018-06-24T07:32:12.646Z,66.33
2018-06-24T07:33:22.819Z,66.27
2018-06-24T07:34:33.027Z,65.82
2018-06-24T07:35:43.154Z,64.89
2018-06-24T07:36:53.222Z,65.27
2018-06-24T07:38:03.325Z,64.34
2018-06-24T07:39:13.612Z,64.65
2018-06-24T07:40:24.033Z,64.85
2018-06-24T07:41:33.596Z,64.85
2018-06-24T07:42:43.682Z,64.65
2018-06-24T07:43:53.793Z,65.24
2018-06-24T07:45:03.894Z,65.14
2018-06-24T07:46:13.720Z,65.24
2018-06-24T07:47:23.793Z,65.53
2018-06-24T07:48:33.880Z,64.98
2018-06-24T07:49:43.949Z,65.37
2018-06-24T07:50:54.038Z,64.69
2018-06-24T07:52:03.883Z,65.2
2018-06-24T07:53:13.966Z,65.11
2018-06-24T07:54:23.804Z,65.27
2018-06-24T07:55:33.884Z,65.56
2018-06-24T07:56:43.428Z,65.47
2018-06-24T07:57:53.009Z,65.2
2018-06-24T07:59:03.086Z,65.5
2018-06-24T08:00:13.172Z,65.4
2018-06-24T08:01:23.258Z,65.59
2018-06-24T08:02:32.554Z,66.08
2018-06-24T08:03:42.631Z,66.34
2018-06-24T08:04:52.737Z,66.2
2018-06-24T08:06:02.840Z,65.75
2018-06-24T08:07:12.927Z,65.27
2018-06-24T08:08:23.064Z,65.4
2018-06-24T08:09:33.140Z,64.95
2018-06-24T08:10:43.255Z,65.05
2018-06-24T08:11:53.096Z,64.65
2018-06-24T08:13:03.175Z,64.88
2018-06-24T08:14:13.304Z,64.98
2018-06-24T08:15:23.375Z,64.78
2018-06-24T08:16:33.453Z,64.62
2018-06-24T08:17:43.536Z,64.43
2018-06-24T08:18:53.632Z,64.81
2018-06-24T08:20:03.765Z,64.53
2018-06-24T08:21:13.913Z,65.3
2018-06-24T08:22:23.995Z,66.24
2018-06-24T08:23:34.062Z,66.5
2018-06-24T08:24:44.166Z,67.5
2018-06-24T08:25:54.266Z,66.99
2018-06-24T08:27:04.359Z,67.76
2018-06-24T08:28:14.441Z,67.53
2018-06-24T08:29:24.533Z,67.92
2018-06-24T08:30:34.350Z,67.53
2018-06-24T08:31:44.662Z,66.95
2018-06-24T08:32:54.506Z,66.34
2018-06-24T08:34:04.608Z,65.3
2018-06-24T08:35:14.430Z,65.14
2018-06-24T08:36:24.545Z,64.49
2018-06-24T08:37:34.634Z,64.81
2018-06-24T08:38:44.724Z,64.17
2018-06-24T08:39:54.821Z,64.26
2018-06-24T08:41:04.901Z,64
2018-06-24T08:42:14.999Z,63.84
2018-06-24T08:43:25.073Z,62.99
2018-06-24T08:44:34.900Z,63.39
2018-06-24T08:45:44.984Z,62.99
2018-06-24T08:46:54.789Z,63.42
2018-06-24T08:48:04.860Z,63.71
2018-06-24T08:49:14.786Z,63.71
2018-06-24T08:50:24.887Z,64.29
2018-06-24T08:51:34.724Z,64.26
2018-06-24T08:52:44.673Z,64.45
2018-06-24T08:53:54.967Z,64.84
2018-06-24T08:55:05.107Z,64.72
2018-06-24T08:56:15.196Z,65.2
2018-06-24T08:57:25.267Z,65.01
2018-06-24T08:58:35.333Z,65.11
2018-06-24T08:59:45.410Z,65.08
2018-06-24T09:00:55.563Z,64.91
2018-06-24T09:02:05.699Z,65.11
2018-06-24T09:03:15.521Z,65.59
2018-06-24T09:04:25.601Z,65.08
2018-06-24T09:05:35.691Z,66.21
2018-06-24T09:06:45.537Z,66.17
2018-06-24T09:07:55.369Z,66.56
2018-06-24T09:09:05.273Z,66.63
2018-06-24T09:10:15.361Z,66.14
2018-06-24T09:11:25.472Z,66.24
2018-06-24T09:12:35.576Z,66.34
2018-06-24T09:13:45.676Z,66.21
2018-06-24T09:14:55.568Z,66.11
2018-06-24T09:16:05.728Z,65.82
2018-06-24T09:17:15.562Z,66.34
2018-06-24T09:18:25.712Z,65.27
2018-06-24T09:19:35.547Z,65.01
2018-06-24T09:20:45.362Z,65.14
2018-06-24T09:21:55.460Z,65.14
2018-06-24T09:23:05.445Z,64.85
2018-06-24T09:24:15.331Z,64.85
2018-06-24T09:25:25.427Z,65.14
2018-06-24T09:26:35.543Z,64.85
2018-06-24T09:27:45.728Z,64.85
2018-06-24T09:28:55.035Z,65.04
2018-06-24T09:30:04.869Z,65.53
2018-06-24T09:31:14.728Z,65.53
2018-06-24T09:32:24.833Z,66.47
2018-06-24T09:33:34.647Z,66.82
2018-06-24T09:34:44.765Z,66.95
2018-06-24T09:35:54.923Z,67.99
2018-06-24T09:37:04.744Z,67.85
2018-06-24T09:38:14.323Z,68.6
2018-06-24T09:39:24.408Z,69.05
2018-06-24T09:40:34.246Z,69.11
2018-06-24T09:41:44.437Z,69.56
2018-06-24T09:42:54.558Z,69.08
2018-06-24T09:44:04.671Z,69.33
2018-06-24T09:45:14.783Z,68.95
2018-06-24T09:46:24.362Z,68.49
2018-06-24T09:47:34.290Z,67.91
2018-06-24T09:48:44.382Z,67.18
2018-06-24T09:49:54.206Z,66.56
2018-06-24T09:51:04.017Z,66.02
2018-06-24T09:52:14.120Z,65.4
2018-06-24T09:53:24.209Z,65.14
2018-06-24T09:54:34.046Z,64.49
2018-06-24T09:55:43.890Z,64.81
2018-06-24T09:56:53.453Z,64.98
2018-06-24T09:58:03.282Z,66.5
2018-06-24T09:59:13.435Z,66.27
2018-06-24T10:00:23.530Z,67.44
2018-06-24T10:01:33.615Z,67.69
2018-06-24T10:02:43.694Z,67.5
2018-06-24T10:03:53.535Z,67.79
2018-06-24T10:05:03.643Z,67.5
2018-06-24T10:06:13.728Z,67.11
2018-06-24T10:07:23.817Z,67.6
2018-06-24T10:08:33.391Z,67.11
2018-06-24T10:09:43.482Z,66.92
2018-06-24T10:10:53.301Z,66.95
2018-06-24T10:12:03.472Z,66.95
2018-06-24T10:13:13.574Z,67.54
2018-06-24T10:14:23.656Z,67.31
2018-06-24T10:15:33.474Z,67.21
2018-06-24T10:16:43.592Z,67.5
2018-06-24T10:17:53.675Z,67.85
2018-06-24T10:19:03.835Z,68.44
2018-06-24T10:20:13.965Z,67.95
2018-06-24T10:21:24.056Z,68.02
2018-06-24T10:22:33.914Z,67.88
2018-06-24T10:23:43.744Z,67.92
2018-06-24T10:24:53.580Z,67.47
2018-06-24T10:26:03.655Z,67.11
2018-06-24T10:27:13.762Z,66.37
2018-06-24T10:28:23.843Z,65.82
2018-06-24T10:29:33.831Z,65.37
2018-06-24T10:30:43.920Z,65.11
2018-06-24T10:31:53.764Z,65.04
2018-06-24T10:33:03.840Z,64.62
2018-06-24T10:34:13.667Z,64.62
2018-06-24T10:35:23.756Z,64.52
2018-06-24T10:36:33.836Z,65.2
2018-06-24T10:37:43.689Z,65.2
2018-06-24T10:38:53.784Z,65.11
2018-06-24T10:40:03.910Z,65.4
2018-06-24T10:41:13.868Z,65.59
2018-06-24T10:42:24.194Z,65.59
2018-06-24T10:43:34.294Z,66.24
2018-06-24T10:44:44.395Z,67.47
2018-06-24T10:45:54.220Z,68.22
2018-06-24T10:47:04.350Z,68.15
2018-06-24T10:48:14.433Z,67.92
2018-06-24T10:49:23.992Z,67.92
2018-06-24T10:50:34.090Z,67.73
2018-06-24T10:51:44.181Z,68.21
2018-06-24T10:52:54.349Z,67.54
2018-06-24T10:54:04.371Z,67.37
2018-06-24T10:55:14.461Z,67.47
2018-06-24T10:56:24.586Z,66.53
2018-06-24T10:57:34.685Z,67.11
2018-06-24T10:58:44.781Z,66.53
2018-06-24T10:59:54.619Z,66.53
2018-06-24T11:01:04.775Z,66.66
2018-06-24T11:02:14.931Z,66.27
2018-06-24T11:03:25.076Z,66.11
2018-06-24T11:04:35.160Z,65.17
2018-06-24T11:05:45.263Z,65.11
2018-06-24T11:06:55.412Z,64.75
2018-06-24T11:08:05.495Z,64.2
2018-06-24T11:09:15.590Z,64.42
2018-06-24T11:10:25.692Z,64.52
2018-06-24T11:11:35.782Z,64.52
2018-06-24T11:12:45.946Z,65.66
2018-06-24T11:13:55.805Z,65.98
2018-06-24T11:15:05.374Z,66.24
2018-06-24T11:16:15.478Z,67.28
2018-06-24T11:17:25.342Z,67.99
2018-06-24T11:18:35.432Z,68.15
2018-06-24T11:19:45.333Z,68.6
2018-06-24T11:20:55.161Z,69.02
2018-06-24T11:22:04.736Z,69.37
2018-06-24T11:23:14.567Z,70.01
2018-06-24T11:24:24.416Z,70.27
2018-06-24T11:25:34.519Z,70.14
2018-06-24T11:26:44.598Z,69.85
2018-06-24T11:27:54.429Z,69.82
2018-06-24T11:29:04.492Z,69.62
2018-06-24T11:30:14.318Z,69.3
2018-06-24T11:31:24.400Z,69.3
2018-06-24T11:32:34.471Z,68.91
2018-06-24T11:33:44.289Z,68.3
2018-06-24T11:34:54.376Z,68.62
2018-06-24T11:36:04.508Z,67.85
2018-06-24T11:37:14.598Z,67.79
2018-06-24T11:38:24.467Z,67.43
2018-06-24T11:39:34.557Z,66.69
2018-06-24T11:40:44.637Z,66.05
2018-06-24T11:41:54.479Z,65.85
2018-06-24T11:43:04.593Z,65.14
2018-06-24T11:44:14.676Z,65.05
2018-06-24T11:45:24.516Z,64.72
2018-06-24T11:46:34.610Z,64.43
2018-06-24T11:47:44.743Z,64.3
2018-06-24T11:48:55.043Z,63.81
2018-06-24T11:50:05.185Z,64.33
2018-06-24T11:51:15.285Z,64.07
2018-06-24T11:52:25.140Z,64.17
2018-06-24T11:53:35.308Z,64.39
2018-06-24T11:54:45.391Z,64.1
2018-06-24T11:55:55.245Z,64.78
2018-06-24T11:57:05.507Z,64.59
2018-06-24T11:58:15.610Z,64.78
2018-06-24T11:59:25.726Z,64.23
2018-06-24T12:00:35.814Z,64.36
2018-06-24T12:01:45.893Z,64.65
2018-06-24T12:02:56.074Z,65.3
2018-06-24T12:04:05.900Z,65.14
2018-06-24T12:05:16.184Z,65.23
2018-06-24T12:06:26.009Z,65.04
2018-06-24T12:07:36.096Z,65.14
2018-06-24T12:08:46.183Z,65.04
2018-06-24T12:09:56.524Z,65.36
2018-06-24T12:11:06.601Z,64.78
2018-06-24T12:12:16.420Z,65.07
2018-06-24T12:13:26.266Z,65.01
2018-06-24T12:14:36.365Z,64.62
2018-06-24T12:15:46.464Z,65.59
2018-06-24T12:16:56.603Z,65.78
2018-06-24T12:18:06.809Z,65.78
2018-06-24T12:19:16.926Z,65.5
2018-06-24T12:20:27.004Z,65.23
2018-06-24T12:21:37.086Z,65.69
2018-06-24T12:22:46.920Z,65.3
2018-06-24T12:23:57.027Z,65.4
2018-06-24T12:25:07.115Z,65.78
2018-06-24T12:26:17.210Z,65.23
2018-06-24T12:27:27.032Z,65.36
2018-06-24T12:28:37.220Z,65.36
2018-06-24T12:29:47.313Z,65.07
2018-06-24T12:30:57.440Z,65.07
2018-06-24T12:32:07.319Z,65.75
2018-06-24T12:33:17.161Z,66.76
2018-06-24T12:34:26.992Z,67.22
2018-06-24T12:35:36.573Z,67.67
2018-06-24T12:36:46.650Z,68.02
2018-06-24T12:37:56.757Z,67.44
2018-06-24T12:39:06.870Z,67.31
2018-06-24T12:40:16.978Z,67.41
2018-06-24T12:41:27.087Z,67.41
2018-06-24T12:42:37.167Z,67.7
2018-06-24T12:43:47.041Z,67.31
2018-06-24T12:44:57.151Z,67.31
2018-06-24T12:46:07.294Z,66.47
2018-06-24T12:47:17.402Z,66.27
2018-06-24T12:48:27.529Z,66.66
2018-06-24T12:49:37.624Z,66.56
2018-06-24T12:50:47.489Z,67.11
2018-06-24T12:51:57.646Z,67.5
2018-06-24T12:53:07.729Z,68.05
2018-06-24T12:54:17.810Z,68.7
2018-06-24T12:55:27.902Z,68.41
2018-06-24T12:56:37.991Z,68.18
2018-06-24T12:57:47.810Z,68.73
2018-06-24T12:58:58.385Z,68.54
2018-06-24T13:00:10.216Z,68.73
2018-06-24T13:01:22.208Z,68.7
2018-06-24T13:02:32.311Z,68.79
2018-06-24T13:03:42.449Z,69.15
2018-06-24T13:04:52.531Z,69.15
2018-06-24T13:06:02.623Z,68.96
2018-06-24T13:07:12.697Z,68.57
2018-06-24T13:08:22.803Z,68.76
2018-06-24T13:09:32.940Z,68.76
2018-06-24T13:10:42.750Z,68.37
2018-06-24T13:11:52.577Z,68.18
2018-06-24T13:13:02.679Z,68.08
2018-06-24T13:14:12.886Z,67.69
2018-06-24T13:15:23.188Z,68.08
2018-06-24T13:16:33.299Z,68.28
2018-06-24T13:17:43.453Z,68.82
2018-06-24T13:18:53.561Z,67.76
2018-06-24T13:20:03.635Z,68.54
2018-06-24T13:21:13.824Z,68.73
2018-06-24T13:22:24.171Z,68.99
2018-06-24T13:23:34.259Z,69.57
2018-06-24T13:24:44.385Z,69.63
2018-06-24T13:25:54.459Z,69.98
2018-06-24T13:27:04.366Z,69.59
2018-06-24T13:28:14.458Z,70.18
2018-06-24T13:29:24.538Z,70.43
2018-06-24T13:30:34.633Z,70.14
2018-06-24T13:31:44.494Z,70.34
2018-06-24T13:32:54.634Z,69.56
2018-06-24T13:34:04.741Z,70.2
2018-06-24T13:35:14.843Z,69.72
2018-06-24T13:36:24.667Z,70.01
2018-06-24T13:37:34.751Z,70.1
2018-06-24T13:38:44.846Z,69.33
2018-06-24T13:39:54.915Z,69.17
2018-06-24T13:41:04.481Z,69.43
2018-06-24T13:42:14.741Z,69.17
2018-06-24T13:43:25.033Z,68.88
2018-06-24T13:44:34.864Z,68.69
2018-06-24T13:45:44.955Z,68.3
2018-06-24T13:46:55.070Z,68.05
2018-06-24T13:48:05.179Z,67.95
2018-06-24T13:49:15.041Z,67.95
2018-06-24T13:50:25.112Z,68.08
2018-06-24T13:51:34.967Z,67.98
2018-06-24T13:52:44.811Z,67.44
2018-06-24T13:53:54.905Z,67.05
2018-06-24T13:55:04.988Z,67.37
2018-06-24T13:56:15.064Z,67.08
2018-06-24T13:57:25.152Z,67.4
2018-06-24T13:58:35.220Z,67.5
2018-06-24T13:59:45.060Z,67.4
2018-06-24T14:00:55.136Z,67.76
2018-06-24T14:02:04.955Z,68.08
2018-06-24T14:03:15.356Z,68.15
2018-06-24T14:04:25.447Z,68.05
2018-06-24T14:05:35.624Z,68.34
2018-06-24T14:06:45.216Z,68.7
2018-06-24T14:07:55.088Z,68.7
2018-06-24T14:09:04.792Z,69.18
2018-06-24T14:10:14.609Z,68.85
2018-06-24T14:11:24.461Z,69.05
2018-06-24T14:12:34.584Z,68.95
2018-06-24T14:13:44.720Z,68.95
2018-06-24T14:14:54.809Z,69.05
2018-06-24T14:16:04.897Z,69.05
2018-06-24T14:17:15.098Z,69.21
2018-06-24T14:18:25.308Z,68.73
2018-06-24T14:19:35.249Z,69.5
2018-06-24T14:20:45.072Z,69.31
2018-06-24T14:21:55.169Z,69.59
2018-06-24T14:23:05.335Z,69.01
2018-06-24T14:24:15.275Z,68.82
2018-06-24T14:25:25.449Z,69.01
2018-06-24T14:26:35.272Z,68.85
2018-06-24T14:27:45.377Z,68.66
2018-06-24T14:28:55.610Z,68.37
2018-06-24T14:30:06.036Z,68.47
2018-06-24T14:31:16.272Z,68.56
2018-06-24T14:32:26.368Z,68.21
2018-06-24T14:33:36.468Z,68.7
2018-06-24T14:34:46.303Z,68.66
2018-06-24T14:35:56.440Z,68.5
2018-06-24T14:37:06.609Z,68.76
2018-06-24T14:38:16.754Z,68.95
2018-06-24T14:39:26.834Z,69.05
2018-06-24T14:40:36.911Z,68.95
2018-06-24T14:41:46.723Z,68.95
2018-06-24T14:42:56.900Z,68.95
2018-06-24T14:44:07.227Z,69.15
2018-06-24T14:45:17.457Z,68.37
2018-06-24T14:46:27.610Z,68.08
2018-06-24T14:47:37.759Z,67.92
2018-06-24T14:48:47.953Z,68.3
2018-06-24T14:49:58.205Z,67.47
2018-06-24T14:51:08.325Z,66.66
2018-06-24T14:52:18.470Z,66.72
2018-06-24T14:53:28.568Z,66.27
2018-06-24T14:54:38.481Z,65.92
2018-06-24T14:55:48.322Z,66.4
2018-06-24T14:56:58.176Z,66.86
2018-06-24T14:58:08.275Z,67.24
2018-06-24T14:59:18.364Z,67.44
2018-06-24T15:00:28.668Z,67.99
2018-06-24T15:01:38.853Z,68.05
2018-06-24T15:02:49.211Z,68.31
2018-06-24T15:03:59.308Z,68.7
2018-06-24T15:05:09.389Z,68.6
2018-06-24T15:06:19.539Z,68.51
2018-06-24T15:07:29.156Z,68.79
2018-06-24T15:08:39.243Z,67.83
2018-06-24T15:09:49.096Z,68.41
2018-06-24T15:10:58.664Z,68.44
2018-06-24T15:12:08.882Z,68.35
2018-06-24T15:13:18.876Z,67.86
2018-06-24T15:14:28.987Z,68.73
2018-06-24T15:15:39.075Z,68.41
2018-06-24T15:16:48.897Z,68.96
2018-06-24T15:17:58.740Z,69.54
2018-06-24T15:19:08.835Z,69.7
2018-06-24T15:20:18.995Z,70.28
2018-06-24T15:21:29.108Z,70.09
2018-06-24T15:22:38.926Z,69.85
2018-06-24T15:23:49.037Z,70.05
2018-06-24T15:24:59.111Z,69.85
2018-06-24T15:26:09.232Z,69.21
2018-06-24T15:27:19.307Z,68.82
2018-06-24T15:28:29.391Z,68.76
2018-06-24T15:29:39.521Z,68.02
2018-06-24T15:30:49.340Z,67.76
2018-06-24T15:31:59.443Z,67.21
2018-06-24T15:33:09.554Z,66.76
2018-06-24T15:34:19.628Z,66.69
2018-06-24T15:35:29.702Z,66.5
2018-06-24T15:36:39.788Z,66.53
2018-06-24T15:37:50.078Z,66.83